Time;durP1;ratioP1;P1;durP2;ratioP2;P2;SDS_P1;SDS_P2;PMS_P1;PMS_P2;Temp;Humidity;BMP_temperature;BMP_pressure;BME280_temperature;BME280_humidity;BME280_pressure;Samples;Min_cycle;Max_cycle;Signal;HPM_P1;HPM_P2
2023/03/20 00:01:55;;;;;;;;;;;;;;;;;;4238834;27;19919;-38
2023/03/20 00:03:56;;;;;;;;;;;;;;;;;;4248267;27;19919;-35
2023/03/20 00:05:57;;;;;;;;;;;;;;;;;;4247557;27;19915;-37
2023/03/20 00:07:58;;;;;;;;;;;;;;;;;;4243345;27;19916;-39
2023/03/20 00:09:59;;;;;;;;;;;;;;;;;;4237984;27;20377;-35
2023/03/20 00:12:01;;;;;;;;;;;;;;;;;;4247723;27;20304;-36
2023/03/20 00:14:02;;;;;;;;;;;;;;;;;;4247723;27;20017;-40
2023/03/20 00:16:04;;;;;;;;;;;;;;;;;;4246220;27;19919;-42
2023/03/20 00:18:06;;;;;;;;;;;;;;;;;;4247925;27;20375;-41
2023/03/20 00:20:07;;;;;;;;;;;;;;;;;;4238530;27;19915;-38
2023/03/20 00:22:08;;;;;;;;;;;;;;;;;;4243357;27;20367;-36
2023/03/20 00:24:09;;;;;;;;;;;;;;;;;;4233608;27;19923;-37
2023/03/20 00:26:11;;;;;;;;;;;;;;;;;;4247306;27;19923;-36
2023/03/20 00:28:11;;;;;;;;;;;;;;;;;;4239598;27;20007;-38
2023/03/20 00:30:13;;;;;;;;;;;;;;;;;;4243081;27;20042;-36
2023/03/20 00:32:14;;;;;;;;;;;;;;;;;;4246857;27;20270;-37
2023/03/20 00:34:16;;;;;;;;;;;;;;;;;;4247869;27;19915;-35
2023/03/20 00:36:20;;;;;;;;;;;;;;;;;;4247254;27;19919;-34
2023/03/20 00:38:21;;;;;;;;;;;;;;;;;;4247775;27;20043;-37
2023/03/20 00:40:22;;;;;;;;;;;;;;;;;;4233493;27;19919;-34
2023/03/20 00:42:24;;;;;;;;;;;;;;;;;;4243113;27;20351;-35
2023/03/20 00:44:25;;;;;;;;;;;;;;;;;;4238496;27;20238;-35
2023/03/20 00:46:26;;;;;;;;;;;;;;;;;;4245590;27;19923;-38
2023/03/20 00:48:27;;;;;;;;;;;;;;;;;;4247118;27;19915;-39
2023/03/20 00:50:30;;;;;;;;;;;;;;;;;;4247378;27;19923;-35
2023/03/20 00:52:32;;;;;;;;;;;;;;;;;;4247256;27;20143;-34
2023/03/20 00:54:33;;;;;;;;;;;;;;;;;;4237167;27;19984;-34
2023/03/20 00:56:35;;;;;;;;;;;;;;;;;;4219304;28;19927;-36
2023/03/20 00:58:36;;;;;;;;;;;;;;;;;;4232495;27;20285;-35
2023/03/20 01:00:37;;;;;;;;;;;;;;;;;;4247211;27;19915;-37
2023/03/20 01:02:38;;;;;;;;;;;;;;;;;;4228621;28;19966;-40
2023/03/20 01:04:40;;;;;;;;;;;;;;;;;;4235209;27;19923;-35
2023/03/20 01:06:41;;;;;;;;;;;;;;;;;;4244859;27;20407;-40
2023/03/20 01:08:42;;;;;;;;;;;;;;;;;;4246160;27;19927;-39
2023/03/20 01:10:43;;;;;;;;;;;;;;;;;;4246730;27;20393;-36
2023/03/20 01:12:43;;;;;;;;;;;;;;;;;;4235838;27;20346;-39
2023/03/20 01:14:45;;;;;;;;;;;;;;;;;;4230369;27;20287;-36
2023/03/20 01:16:46;;;;;;;;;;;;;;;;;;4231581;27;19957;-35
2023/03/20 01:18:47;;;;;;;;;;;;;;;;;;4240801;27;19924;-36
2023/03/20 01:20:48;;;;;;;;;;;;;;;;;;4237909;27;20205;-38
2023/03/20 01:22:49;;;;;;;;;;;;;;;;;;4228309;28;20003;-35
2023/03/20 01:24:50;;;;;;;;;;;;;;;;;;4211456;28;19932;-39
2023/03/20 01:26:53;;;;;;;;;;;;;;;;;;4246427;27;19915;-34
2023/03/20 01:28:54;;;;;;;;;;;;;;;;;;4238950;27;20011;-38
2023/03/20 01:30:55;;;;;;;;;;;;;;;;;;4222804;28;19980;-38
2023/03/20 01:32:56;;;;;;;;;;;;;;;;;;4231988;27;19915;-34
2023/03/20 01:34:58;;;;;;;;;;;;;;;;;;4245249;27;19973;-33
2023/03/20 01:36:59;;;;;;;;;;;;;;;;;;4228099;28;19915;-33
2023/03/20 01:38:59;;;;;;;;;;;;;;;;;;4221575;28;19927;-34
2023/03/20 01:41:00;;;;;;;;;;;;;;;;;;4233734;27;20292;-35
2023/03/20 01:43:04;;;;;;;;;;;;;;;;;;4244866;27;19930;-35
2023/03/20 01:45:06;;;;;;;;;;;;;;;;;;4246550;27;19915;-38
2023/03/20 01:47:07;;;;;;;;;;;;;;;;;;4244726;27;19915;-37
2023/03/20 01:49:08;;;;;;;;;;;;;;;;;;4245340;27;19984;-37
2023/03/20 01:51:10;;;;;;;;;;;;;;;;;;4226910;28;19916;-39
2023/03/20 01:53:11;;;;;;;;;;;;;;;;;;4229566;28;19942;-38
2023/03/20 01:55:17;;;;;;;;;;;;;;;;;;4235789;27;19915;-41
2023/03/20 01:57:21;;;;;;;;;;;;;;;;;;4227788;28;19927;-38
2023/03/20 01:59:22;;;;;;;;;;;;;;;;;;4227840;28;19924;-35
2023/03/20 02:01:24;;;;;;;;;;;;;;;;;;4214490;28;19915;-35
2023/03/20 02:03:25;;;;;;;;;;;;;;;;;;4211146;28;19981;-39
2023/03/20 02:05:51;;;;;;;;;;;;;;;;;;4224889;28;19920;-35
2023/03/20 02:07:51;;;;;;;;;;;;;;;;;;4244597;27;19919;-39
2023/03/20 02:09:53;;;;;;;;;;;;;;;;;;4240648;27;19961;-35
2023/03/20 02:12:01;;;;;;;;;;;;;;;;;;4237990;28;20383;-38
2023/03/20 02:14:02;;;;;;;;;;;;;;;;;;4214835;28;19927;-36
2023/03/20 02:16:12;;;;;;;;;;;;;;;;;;4214535;28;19935;-38
2023/03/20 02:18:31;;;;;;;;;;;;;;;;;;4218833;28;19996;-40
2023/03/20 02:20:34;;;;;;;;;;;;;;;;;;4224040;28;20002;-35
2023/03/20 02:22:35;;;;;;;;;;;;;;;;;;4213653;28;19927;-36
2023/03/20 02:24:36;;;;;;;;;;;;;;;;;;4227887;28;19992;-38
2023/03/20 02:26:37;;;;;;;;;;;;;;;;;;4219064;28;19927;-37
2023/03/20 02:28:39;;;;;;;;;;;;;;;;;;4222733;28;19935;-36
2023/03/20 02:30:40;;;;;;;;;;;;;;;;;;4226383;28;20006;-34
2023/03/20 02:32:41;;;;;;;;;;;;;;;;;;4219473;28;19916;-35
2023/03/20 02:34:42;;;;;;;;;;;;;;;;;;4230970;28;20283;-36
2023/03/20 02:36:43;;;;;;;;;;;;;;;;;;4226454;28;19920;-34
2023/03/20 02:38:44;;;;;;;;;;;;;;;;;;4229714;28;19915;-34
2023/03/20 02:40:46;;;;;;;;;;;;;;;;;;4214394;28;19981;-36
2023/03/20 02:42:46;;;;;;;;;;;;;;;;;;4238751;27;20445;-34
2023/03/20 02:44:48;;;;;;;;;;;;;;;;;;4231066;28;19916;-38
2023/03/20 02:46:50;;;;;;;;;;;;;;;;;;4230231;28;19981;-37
2023/03/20 02:48:56;;;;;;;;;;;;;;;;;;4214222;28;19920;-33
2023/03/20 02:50:57;;;;;;;;;;;;;;;;;;4204730;28;19920;-35
2023/03/20 02:52:58;;;;;;;;;;;;;;;;;;4238621;27;19934;-35
2023/03/20 02:55:00;;;;;;;;;;;;;;;;;;4244666;27;19919;-34
2023/03/20 02:57:01;;;;;;;;;;;;;;;;;;4235786;27;19931;-38
2023/03/20 02:59:02;;;;;;;;;;;;;;;;;;4220470;28;19973;-37
2023/03/20 03:01:03;;;;;;;;;;;;;;;;;;4223213;28;19916;-38
2023/03/20 03:03:06;;;;;;;;;;;;;;;;;;4247431;27;19915;-36
2023/03/20 03:05:08;;;;;;;;;;;;;;;;;;4229455;28;19915;-35
2023/03/20 03:07:09;;;;;;;;;;;;;;;;;;4247529;27;19923;-38
2023/03/20 03:09:10;;;;;;;;;;;;;;;;;;4230835;28;19980;-38
2023/03/20 03:11:12;;;;;;;;;;;;;;;;;;4249033;27;19916;-38
2023/03/20 03:13:14;;;;;;;;;;;;;;;;;;4230151;28;19916;-37
2023/03/20 03:15:15;;;;;;;;;;;;;;;;;;4248868;27;19919;-34
2023/03/20 03:17:16;;;;;;;;;;;;;;;;;;4229800;28;19965;-35
2023/03/20 03:19:18;;;;;;;;;;;;;;;;;;4248916;27;19920;-34
2023/03/20 03:21:19;;;;;;;;;;;;;;;;;;4217126;28;20278;-38
2023/03/20 03:23:20;;;;;;;;;;;;;;;;;;4248043;27;19968;-39
2023/03/20 03:25:21;;;;;;;;;;;;;;;;;;4230179;28;19919;-40
2023/03/20 03:27:22;;;;;;;;;;;;;;;;;;4230409;28;20057;-38
2023/03/20 03:29:25;;;;;;;;;;;;;;;;;;4218208;28;20403;-37
2023/03/20 03:31:26;;;;;;;;;;;;;;;;;;4244763;27;19919;-40
2023/03/20 03:33:28;;;;;;;;;;;;;;;;;;4236436;27;19936;-37
2023/03/20 03:35:28;;;;;;;;;;;;;;;;;;4248612;27;19970;-37
2023/03/20 03:37:30;;;;;;;;;;;;;;;;;;4237417;27;19915;-36
2023/03/20 03:39:50;;;;;;;;;;;;;;;;;;4235248;27;19965;-37
2023/03/20 03:41:53;;;;;;;;;;;;;;;;;;4229978;28;19982;-38
2023/03/20 03:43:55;;;;;;;;;;;;;;;;;;4223022;28;19916;-34
2023/03/20 03:45:56;;;;;;;;;;;;;;;;;;4230110;28;19916;-41
2023/03/20 03:48:00;;;;;;;;;;;;;;;;;;4244701;27;19985;-41
2023/03/20 03:50:01;;;;;;;;;;;;;;;;;;4235940;27;19919;-37
2023/03/20 03:52:03;;;;;;;;;;;;;;;;;;4239816;27;19920;-39
2023/03/20 03:54:04;;;;;;;;;;;;;;;;;;4231160;28;20021;-35
2023/03/20 03:56:05;;;;;;;;;;;;;;;;;;4226691;28;19945;-42
2023/03/20 03:58:08;;;;;;;;;;;;;;;;;;4217081;28;20008;-35
2023/03/20 04:00:10;;;;;;;;;;;;;;;;;;4241088;27;19960;-38
2023/03/20 04:02:14;;;;;;;;;;;;;;;;;;4241604;27;19971;-40
2023/03/20 04:04:15;;;;;;;;;;;;;;;;;;4247949;27;20378;-37
2023/03/20 04:06:17;;;;;;;;;;;;;;;;;;4244936;27;19940;-36
2023/03/20 04:08:18;;;;;;;;;;;;;;;;;;4237509;27;19923;-36
2023/03/20 04:10:19;;;;;;;;;;;;;;;;;;4248075;27;19960;-35
2023/03/20 04:12:20;;;;;;;;;;;;;;;;;;4229483;28;20390;-36
2023/03/20 04:14:21;;;;;;;;;;;;;;;;;;4229049;28;19973;-36
2023/03/20 04:16:23;;;;;;;;;;;;;;;;;;4223195;28;19920;-37
2023/03/20 04:18:24;;;;;;;;;;;;;;;;;;4221274;28;20236;-35
2023/03/20 04:20:26;;;;;;;;;;;;;;;;;;4229757;28;19916;-37
2023/03/20 04:22:27;;;;;;;;;;;;;;;;;;4229308;28;19965;-36
2023/03/20 04:24:30;;;;;;;;;;;;;;;;;;4224843;28;19916;-33
2023/03/20 04:26:31;;;;;;;;;;;;;;;;;;4238444;27;19923;-40
2023/03/20 04:28:32;;;;;;;;;;;;;;;;;;4218588;28;20011;-33
2023/03/20 04:30:55;;;;;;;;;;;;;;;;;;4235195;27;19915;-34
2023/03/20 04:33:16;;;;;;;;;;;;;;;;;;4247420;27;19944;-35
2023/03/20 04:35:33;;;;;;;;;;;;;;;;;;4244083;27;20336;-33
2023/03/20 04:37:39;;;;;;;;;;;;;;;;;;4235417;27;19953;-36
2023/03/20 04:39:41;;;;;;;;;;;;;;;;;;4229348;28;19928;-35
2023/03/20 04:41:43;;;;;;;;;;;;;;;;;;4229284;28;19919;-39
2023/03/20 04:43:44;;;;;;;;;;;;;;;;;;4213983;28;19916;-34
2023/03/20 04:45:45;;;;;;;;;;;;;;;;;;4246255;27;19922;-38
2023/03/20 04:47:47;;;;;;;;;;;;;;;;;;4247117;27;19919;-37
2023/03/20 04:49:48;;;;;;;;;;;;;;;;;;4246219;27;19916;-34
2023/03/20 04:51:50;;;;;;;;;;;;;;;;;;4228778;28;19916;-37
2023/03/20 04:54:00;;;;;;;;;;;;;;;;;;4228697;28;19919;-34
2023/03/20 04:56:02;;;;;;;;;;;;;;;;;;4224697;28;20507;-36
2023/03/20 04:58:03;;;;;;;;;;;;;;;;;;4217380;28;20379;-34
2023/03/20 05:00:04;;;;;;;;;;;;;;;;;;4229000;28;19915;-34
2023/03/20 05:02:05;;;;;;;;;;;;;;;;;;4224127;28;19916;-39
2023/03/20 05:04:06;;;;;;;;;;;;;;;;;;4238918;27;19915;-36
2023/03/20 05:06:07;;;;;;;;;;;;;;;;;;4218217;28;19942;-37
2023/03/20 05:08:09;;;;;;;;;;;;;;;;;;4244327;27;19915;-37
2023/03/20 05:10:12;;;;;;;;;;;;;;;;;;4245779;27;19948;-35
2023/03/20 05:12:22;;;;;;;;;;;;;;;;;;4220684;28;19935;-38
2023/03/20 05:14:32;;;;;;;;;;;;;;;;;;4241158;27;19922;-36
2023/03/20 05:16:52;;;;;;;;;;;;;;;;;;4246474;27;19919;-34
2023/03/20 05:19:17;;;;;;;;;;;;;;;;;;4228772;27;19945;-37
2023/03/20 05:21:32;;;;;;;;;;;;;;;;;;4226692;28;19916;-35
2023/03/20 05:23:45;;;;;;;;;;;;;;;;;;4229132;27;19968;-36
2023/03/20 05:26:10;;;;;;;;;;;;;;;;;;4211019;28;19916;-35
2023/03/20 05:28:29;;;;;;;;;;;;;;;;;;4203912;28;19954;-33
2023/03/20 05:31:02;;;;;;;;;;;;;;;;;;4194974;28;20020;-33
2023/03/20 05:33:16;;;;;;;;;;;;;;;;;;4211606;28;20021;-37
2023/03/20 05:35:36;;;;;;;;;;;;;;;;;;4211561;28;20368;-39
2023/03/20 05:37:47;;;;;;;;;;;;;;;;;;4187034;28;19931;-37
2023/03/20 05:40:15;;;;;;;;;;;;;;;;;;4183068;28;19916;-37
2023/03/20 05:42:46;;;;;;;;;;;;;;;;;;4193303;28;19977;-33
2023/03/20 05:45:05;;;;;;;;;;;;;;;;;;4201887;28;19916;-37
2023/03/20 05:47:35;;;;;;;;;;;;;;;;;;4185594;28;19923;-35
2023/03/20 05:49:59;;;;;;;;;;;;;;;;;;4199024;28;20296;-38
2023/03/20 05:52:15;;;;;;;;;;;;;;;;;;4212190;28;19923;-38
2023/03/20 05:54:35;;;;;;;;;;;;;;;;;;4212290;28;19946;-36
2023/03/20 05:56:51;;;;;;;;;;;;;;;;;;4199697;28;19920;-36
2023/03/20 05:59:25;;;;;;;;;;;;;;;;;;4169742;28;19946;-37
2023/03/20 06:01:55;;;;;;;;;;;;;;;;;;4178377;28;19982;-37
2023/03/20 06:04:00;;;;;;;;;;;;;;;;;;4187215;28;20349;-36
2023/03/20 06:06:36;;;;;;;;;;;;;;;;;;4179662;28;20694;-39
2023/03/20 06:08:38;;;;;;;;;;;;;;;;;;4184731;28;19920;-37
2023/03/20 06:10:40;;;;;;;;;;;;;;;;;;4196465;28;19924;-40
2023/03/20 06:12:44;;;;;;;;;;;;;;;;;;4208870;28;19942;-37
2023/03/20 06:14:45;;;;;;;;;;;;;;;;;;4174297;28;19921;-38
2023/03/20 06:16:46;;;;;;;;;;;;;;;;;;4178968;28;20557;-37
2023/03/20 06:18:48;;;;;;;;;;;;;;;;;;4199758;28;19920;-33
2023/03/20 06:20:49;;;;;;;;;;;;;;;;;;4201460;28;20059;-38
2023/03/20 06:22:51;;;;;;;;;;;;;;;;;;4189112;28;19925;-34
2023/03/20 06:24:52;;;;;;;;;;;;;;;;;;4183986;28;20350;-36
2023/03/20 06:26:53;;;;;;;;;;;;;;;;;;4194201;28;20315;-36
2023/03/20 06:28:55;;;;;;;;;;;;;;;;;;4191950;28;20355;-38
2023/03/20 06:30:56;;;;;;;;;;;;;;;;;;4202081;28;20007;-38
2023/03/20 06:32:57;;;;;;;;;;;;;;;;;;4200286;28;19973;-38
2023/03/20 06:35:06;;;;;;;;;;;;;;;;;;4215956;28;19923;-42
2023/03/20 06:37:07;;;;;;;;;;;;;;;;;;4211329;28;20471;-37
2023/03/20 06:39:08;;;;;;;;;;;;;;;;;;4216169;28;19956;-39
2023/03/20 06:41:10;;;;;;;;;;;;;;;;;;4229241;28;19970;-36
2023/03/20 06:43:11;;;;;;;;;;;;;;;;;;4213545;28;20302;-34
2023/03/20 06:45:19;;;;;;;;;;;;;;;;;;4208662;28;20641;-36
2023/03/20 06:47:32;;;;;;;;;;;;;;;;;;4210855;28;19968;-40
2023/03/20 06:49:33;;;;;;;;;;;;;;;;;;4212981;28;19924;-38
2023/03/20 06:51:34;;;;;;;;;;;;;;;;;;4214750;28;19963;-42
2023/03/20 06:53:38;;;;;;;;;;;;;;;;;;4210984;28;19993;-38
2023/03/20 06:55:48;;;;;;;;;;;;;;;;;;4193299;28;19924;-42
2023/03/20 06:57:50;;;;;;;;;;;;;;;;;;4202002;28;19931;-37
2023/03/20 06:59:53;;;;;;;;;;;;;;;;;;4215871;28;19924;-40
2023/03/20 07:01:54;;;;;;;;;;;;;;;;;;4221606;28;20495;-34
2023/03/20 07:03:55;;;;;;;;;;;;;;;;;;4224019;28;19919;-38
2023/03/20 07:06:00;;;;;;;;;;;;;;;;;;4215688;28;19919;-39
2023/03/20 07:08:01;;;;;;;;;;;;;;;;;;4208432;28;20291;-42
2023/03/20 07:10:03;;;;;;;;;;;;;;;;;;4211040;28;19972;-37
2023/03/20 07:12:04;;;;;;;;;;;;;;;;;;4215899;28;20018;-35
2023/03/20 07:14:06;;;;;;;;;;;;;;;;;;4220838;28;20400;-38
2023/03/20 07:16:30;;;;;;;;;;;;;;;;;;4220559;27;20277;-37
2023/03/20 07:18:31;;;;;;;;;;;;;;;;;;4223981;27;19935;-43
2023/03/20 07:20:32;;;;;;;;;;;;;;;;;;4217858;27;19935;-40
2023/03/20 07:22:33;;;;;;;;;;;;;;;;;;4202642;28;19924;-40
2023/03/20 07:24:50;;;;;;;;;;;;;;;;;;4196185;28;19980;-37
2023/03/20 07:26:53;;;;;;;;;;;;;;;;;;4200697;28;19924;-42
2023/03/20 07:28:55;;;;;;;;;;;;;;;;;;4202218;28;20343;-40
2023/03/20 07:30:58;;;;;;;;;;;;;;;;;;4206405;28;20428;-38
2023/03/20 07:33:00;;;;;;;;;;;;;;;;;;4198468;28;19924;-39
2023/03/20 07:35:05;;;;;;;;;;;;;;;;;;4191001;28;19973;-44
2023/03/20 07:37:06;;;;;;;;;;;;;;;;;;4211271;27;19928;-43
2023/03/20 07:39:08;;;;;;;;;;;;;;;;;;4197786;27;20006;-43
2023/03/20 07:41:10;;;;;;;;;;;;;;;;;;4211273;27;19927;-43
2023/03/20 07:43:15;;;;;;;;;;;;;;;;;;4213796;27;20000;-42
2023/03/20 07:45:42;;;;;;;;;;;;;;;;;;4220764;27;19920;-43
2023/03/20 07:47:43;;;;;;;;;;;;;;;;;;4217353;27;20347;-42
2023/03/20 07:49:45;;;;;;;;;;;;;;;;;;4203383;27;19920;-43
2023/03/20 07:51:46;;;;;;;;;;;;;;;;;;4198097;27;20283;-43
2023/03/20 07:53:47;;;;;;;;;;;;;;;;;;4186873;28;19924;-43
2023/03/20 07:55:49;;;;;;;;;;;;;;;;;;4194546;27;20439;-43
2023/03/20 07:57:50;;;;;;;;;;;;;;;;;;4184374;27;20036;-43
2023/03/20 07:59:52;;;;;;;;;;;;;;;;;;4181918;28;20566;-43
2023/03/20 08:01:53;;;;;;;;;;;;;;;;;;4202567;27;19923;-43
2023/03/20 08:03:54;;;;;;;;;;;;;;;;;;4203335;27;20368;-42
2023/03/20 08:05:56;;;;;;;;;;;;;;;;;;4194140;27;21305;-42
2023/03/20 08:07:56;;;;;;;;;;;;;;;;;;4199804;28;19958;-42
2023/03/20 08:09:58;;;;;;;;;;;;;;;;;;4208615;27;20038;-42
2023/03/20 08:11:59;;;;;;;;;;;;;;;;;;4207294;27;19923;-43
2023/03/20 08:14:00;;;;;;;;;;;;;;;;;;4201401;27;19927;-43
2023/03/20 08:16:02;;;;;;;;;;;;;;;;;;4196043;27;20527;-43
2023/03/20 08:18:03;;;;;;;;;;;;;;;;;;4196845;27;19952;-42
2023/03/20 08:20:06;;;;;;;;;;;;;;;;;;4205379;27;20339;-42
2023/03/20 08:22:07;;;;;;;;;;;;;;;;;;4192820;27;20501;-43
2023/03/20 08:24:08;;;;;;;;;;;;;;;;;;4195845;27;19980;-43
2023/03/20 08:26:09;;;;;;;;;;;;;;;;;;4185032;27;19933;-42
2023/03/20 08:28:11;;;;;;;;;;;;;;;;;;4185892;27;19923;-43
2023/03/20 08:30:13;;;;;;;;;;;;;;;;;;4172175;27;19924;-42
2023/03/20 08:32:14;;;;;;;;;;;;;;;;;;4179377;27;19932;-42
2023/03/20 08:34:15;;;;;;;;;;;;;;;;;;4187868;27;20735;-44
2023/03/20 08:36:19;;;;;;;;;;;;;;;;;;4185998;27;19939;-44
2023/03/20 08:38:20;;;;;;;;;;;;;;;;;;4199646;27;19934;-45
2023/03/20 08:40:21;;;;;;;;;;;;;;;;;;4199001;27;19930;-45
2023/03/20 08:42:22;;;;;;;;;;;;;;;;;;4192007;28;20497;-45
2023/03/20 08:44:23;;;;;;;;;;;;;;;;;;4197449;27;20238;-44
2023/03/20 08:46:24;;;;;;;;;;;;;;;;;;4201609;27;20008;-45
2023/03/20 08:48:25;;;;;;;;;;;;;;;;;;4196587;27;20328;-43
2023/03/20 08:50:26;;;;;;;;;;;;;;;;;;4197110;27;20407;-42
2023/03/20 08:52:27;;;;;;;;;;;;;;;;;;4197587;27;20028;-43
2023/03/20 08:54:28;;;;;;;;;;;;;;;;;;4199082;27;19927;-43
2023/03/20 08:56:30;;;;;;;;;;;;;;;;;;4183648;27;19981;-43
2023/03/20 08:58:31;;;;;;;;;;;;;;;;;;4180656;27;20350;-45
2023/03/20 09:00:31;;;;;;;;;;;;;;;;;;4195904;27;19992;-44
2023/03/20 09:02:33;;;;;;;;;;;;;;;;;;4189264;27;19942;-44
2023/03/20 09:04:34;;;;;;;;;;;;;;;;;;4185564;27;20433;-44
2023/03/20 09:06:35;;;;;;;;;;;;;;;;;;4206055;27;19922;-42
2023/03/20 09:08:36;;;;;;;;;;;;;;;;;;4204908;27;20706;-43
2023/03/20 09:10:37;;;;;;;;;;;;;;;;;;4198209;27;19923;-44
2023/03/20 09:12:38;;;;;;;;;;;;;;;;;;4205439;27;19999;-44
2023/03/20 09:14:40;;;;;;;;;;;;;;;;;;4186355;27;19927;-46
2023/03/20 09:16:41;;;;;;;;;;;;;;;;;;4198006;27;20852;-45
2023/03/20 09:18:42;;;;;;;;;;;;;;;;;;4181606;27;19934;-45
2023/03/20 09:20:44;;;;;;;;;;;;;;;;;;4199252;27;19984;-43
2023/03/20 09:22:45;;;;;;;;;;;;;;;;;;4205507;27;19973;-43
2023/03/20 09:24:46;;;;;;;;;;;;;;;;;;4189951;28;19973;-43
2023/03/20 09:26:47;;;;;;;;;;;;;;;;;;4199042;27;19927;-44
2023/03/20 09:28:48;;;;;;;;;;;;;;;;;;4198045;27;19935;-42
2023/03/20 09:30:50;;;;;;;;;;;;;;;;;;4183875;27;20001;-44
2023/03/20 09:32:51;;;;;;;;;;;;;;;;;;4177642;27;20402;-43
2023/03/20 09:34:52;;;;;;;;;;;;;;;;;;4193223;27;19962;-43
2023/03/20 09:36:53;;;;;;;;;;;;;;;;;;4189213;27;19935;-43
2023/03/20 09:38:54;;;;;;;;;;;;;;;;;;4191749;27;20350;-44
2023/03/20 09:40:56;;;;;;;;;;;;;;;;;;4190885;27;19982;-44
2023/03/20 09:42:56;;;;;;;;;;;;;;;;;;4199459;27;19919;-45
2023/03/20 09:44:58;;;;;;;;;;;;;;;;;;4199208;27;19931;-46
2023/03/20 09:46:59;;;;;;;;;;;;;;;;;;4196089;27;20206;-45
2023/03/20 09:49:00;;;;;;;;;;;;;;;;;;4201538;27;19919;-45
2023/03/20 09:51:01;;;;;;;;;;;;;;;;;;4191206;27;19924;-45
2023/03/20 09:53:05;;;;;;;;;;;;;;;;;;4203555;27;19965;-47
2023/03/20 09:55:06;;;;;;;;;;;;;;;;;;4202029;27;20381;-39
2023/03/20 09:57:08;;;;;;;;;;;;;;;;;;4201872;27;19992;-39
2023/03/20 09:59:08;;;;;;;;;;;;;;;;;;4207929;27;20623;-38
2023/03/20 10:01:09;;;;;;;;;;;;;;;;;;4197888;27;19931;-39
2023/03/20 10:03:10;;;;;;;;;;;;;;;;;;4204511;27;19923;-40
2023/03/20 10:05:11;;;;;;;;;;;;;;;;;;4198890;27;20004;-36
2023/03/20 10:07:12;;;;;;;;;;;;;;;;;;4191388;28;21016;-37
2023/03/20 10:09:13;;;;;;;;;;;;;;;;;;4205761;27;20004;-37
2023/03/20 10:11:15;;;;;;;;;;;;;;;;;;4205780;27;19923;-36
2023/03/20 10:13:16;;;;;;;;;;;;;;;;;;4199571;28;19928;-37
2023/03/20 10:15:17;;;;;;;;;;;;;;;;;;4207758;28;20044;-36
2023/03/20 10:17:18;;;;;;;;;;;;;;;;;;4211533;28;19927;-35
2023/03/20 10:19:19;;;;;;;;;;;;;;;;;;4208831;28;19927;-37
2023/03/20 10:21:22;;;;;;;;;;;;;;;;;;4203856;28;20641;-37
2023/03/20 10:23:24;;;;;;;;;;;;;;;;;;4198330;28;19923;-38
2023/03/20 10:25:24;;;;;;;;;;;;;;;;;;4206309;28;20416;-37
2023/03/20 10:27:25;;;;;;;;;;;;;;;;;;4193259;28;19930;-35
2023/03/20 10:29:26;;;;;;;;;;;;;;;;;;4192609;28;20013;-37
2023/03/20 10:31:27;;;;;;;;;;;;;;;;;;4202072;28;19923;-36
2023/03/20 10:33:29;;;;;;;;;;;;;;;;;;4202123;28;19949;-36
2023/03/20 10:35:30;;;;;;;;;;;;;;;;;;4206103;28;19928;-33
2023/03/20 10:37:31;;;;;;;;;;;;;;;;;;4203526;28;20309;-37
2023/03/20 10:39:32;;;;;;;;;;;;;;;;;;4194462;28;19930;-41
2023/03/20 10:41:33;;;;;;;;;;;;;;;;;;4197435;28;19927;-41
2023/03/20 10:43:34;;;;;;;;;;;;;;;;;;4203504;28;20115;-40
2023/03/20 10:45:35;;;;;;;;;;;;;;;;;;4196202;28;20377;-37
2023/03/20 10:47:37;;;;;;;;;;;;;;;;;;4202324;28;20591;-38
2023/03/20 10:49:38;;;;;;;;;;;;;;;;;;4206214;28;19935;-36
2023/03/20 10:51:39;;;;;;;;;;;;;;;;;;4213502;27;19984;-38
2023/03/20 10:53:40;;;;;;;;;;;;;;;;;;4220466;27;19959;-38
2023/03/20 10:55:42;;;;;;;;;;;;;;;;;;4212835;27;19923;-37
2023/03/20 10:57:45;;;;;;;;;;;;;;;;;;4199932;27;19928;-37
2023/03/20 10:59:48;;;;;;;;;;;;;;;;;;4196966;27;20069;-37
2023/03/20 11:01:49;;;;;;;;;;;;;;;;;;4191381;27;19996;-39
2023/03/20 11:03:50;;;;;;;;;;;;;;;;;;4196081;27;19954;-36
2023/03/20 11:05:51;;;;;;;;;;;;;;;;;;4211585;27;20363;-39
2023/03/20 11:07:53;;;;;;;;;;;;;;;;;;4206271;27;19971;-36
2023/03/20 11:09:54;;;;;;;;;;;;;;;;;;4206699;27;19927;-37
2023/03/20 11:11:55;;;;;;;;;;;;;;;;;;4197095;27;19996;-39
2023/03/20 11:13:57;;;;;;;;;;;;;;;;;;4186544;27;20366;-38
2023/03/20 11:15:58;;;;;;;;;;;;;;;;;;4209599;27;19949;-39
2023/03/20 11:17:59;;;;;;;;;;;;;;;;;;4205370;27;19934;-36
2023/03/20 11:20:01;;;;;;;;;;;;;;;;;;4207111;27;19973;-39
2023/03/20 11:22:03;;;;;;;;;;;;;;;;;;4205832;27;19923;-38
2023/03/20 11:24:04;;;;;;;;;;;;;;;;;;4214493;27;20325;-36
2023/03/20 11:26:05;;;;;;;;;;;;;;;;;;4196711;27;20634;-37
2023/03/20 11:28:07;;;;;;;;;;;;;;;;;;4205384;27;19928;-38
2023/03/20 11:30:08;;;;;;;;;;;;;;;;;;4179854;27;20013;-38
2023/03/20 11:32:09;;;;;;;;;;;;;;;;;;4208560;27;20377;-37
2023/03/20 11:34:10;;;;;;;;;;;;;;;;;;4208714;27;19934;-38
2023/03/20 11:36:12;;;;;;;;;;;;;;;;;;4211639;27;20298;-39
2023/03/20 11:38:13;;;;;;;;;;;;;;;;;;4214913;27;19973;-38
2023/03/20 11:40:14;;;;;;;;;;;;;;;;;;4213124;27;19927;-40
2023/03/20 11:42:15;;;;;;;;;;;;;;;;;;4212581;27;20260;-38
2023/03/20 11:44:16;;;;;;;;;;;;;;;;;;4219134;27;19924;-37
2023/03/20 11:46:18;;;;;;;;;;;;;;;;;;4211760;27;19923;-37
2023/03/20 11:48:19;;;;;;;;;;;;;;;;;;4217237;27;19915;-38
2023/03/20 11:50:20;;;;;;;;;;;;;;;;;;4191389;28;20022;-40
2023/03/20 11:52:21;;;;;;;;;;;;;;;;;;4214587;27;19975;-40
2023/03/20 11:54:22;;;;;;;;;;;;;;;;;;4215472;27;21143;-38
2023/03/20 11:56:23;;;;;;;;;;;;;;;;;;4218076;27;19973;-39
2023/03/20 11:58:25;;;;;;;;;;;;;;;;;;4215485;27;19965;-39
2023/03/20 12:00:26;;;;;;;;;;;;;;;;;;4217778;27;19984;-40
2023/03/20 12:02:27;;;;;;;;;;;;;;;;;;4210963;27;19916;-43
2023/03/20 12:04:28;;;;;;;;;;;;;;;;;;4214108;27;19926;-39
2023/03/20 12:06:30;;;;;;;;;;;;;;;;;;4206998;27;20430;-39
2023/03/20 12:08:31;;;;;;;;;;;;;;;;;;4227185;27;19957;-39
2023/03/20 12:10:31;;;;;;;;;;;;;;;;;;4225155;27;20014;-40
2023/03/20 12:12:32;;;;;;;;;;;;;;;;;;4220404;27;19923;-40
2023/03/20 12:14:34;;;;;;;;;;;;;;;;;;4222287;27;22022;-40
2023/03/20 12:16:35;;;;;;;;;;;;;;;;;;4219000;27;19920;-40
2023/03/20 12:18:36;;;;;;;;;;;;;;;;;;4209184;28;19928;-40
2023/03/20 12:20:38;;;;;;;;;;;;;;;;;;4193438;28;19935;-39
2023/03/20 12:22:39;;;;;;;;;;;;;;;;;;4221660;27;19919;-40
2023/03/20 12:24:40;;;;;;;;;;;;;;;;;;4219264;27;19919;-38
2023/03/20 12:26:41;;;;;;;;;;;;;;;;;;4219706;27;19927;-39
2023/03/20 12:28:43;;;;;;;;;;;;;;;;;;4220222;27;25956;-38
2023/03/20 12:30:44;;;;;;;;;;;;;;;;;;4216582;27;19923;-38
2023/03/20 12:32:45;;;;;;;;;;;;;;;;;;4216750;27;19935;-38
2023/03/20 12:34:46;;;;;;;;;;;;;;;;;;4217764;27;19930;-38
2023/03/20 12:36:48;;;;;;;;;;;;;;;;;;4204399;28;20004;-40
2023/03/20 12:38:49;;;;;;;;;;;;;;;;;;4218939;27;20589;-38
2023/03/20 12:40:51;;;;;;;;;;;;;;;;;;4215987;27;19976;-39
2023/03/20 12:42:52;;;;;;;;;;;;;;;;;;4188024;28;20010;-39
2023/03/20 12:44:53;;;;;;;;;;;;;;;;;;4214465;27;20292;-41
2023/03/20 12:46:54;;;;;;;;;;;;;;;;;;4219218;27;19980;-39
2023/03/20 12:48:55;;;;;;;;;;;;;;;;;;4223587;27;19924;-39
2023/03/20 12:50:56;;;;;;;;;;;;;;;;;;4222631;27;19931;-38
2023/03/20 12:52:57;;;;;;;;;;;;;;;;;;4221605;27;19971;-38
2023/03/20 12:54:58;;;;;;;;;;;;;;;;;;4194494;27;19931;-41
2023/03/20 12:57:00;;;;;;;;;;;;;;;;;;4216169;27;20302;-38
2023/03/20 12:59:01;;;;;;;;;;;;;;;;;;4210508;27;20568;-42
2023/03/20 13:01:02;;;;;;;;;;;;;;;;;;4206187;27;19939;-40
2023/03/20 13:03:04;;;;;;;;;;;;;;;;;;4188885;28;20352;-39
2023/03/20 13:05:05;;;;;;;;;;;;;;;;;;4203298;28;20303;-39
2023/03/20 13:07:06;;;;;;;;;;;;;;;;;;4214211;27;20288;-39
2023/03/20 13:09:07;;;;;;;;;;;;;;;;;;4210103;27;20003;-39
2023/03/20 13:11:08;;;;;;;;;;;;;;;;;;4215674;27;19973;-40
2023/03/20 13:13:09;;;;;;;;;;;;;;;;;;4216303;27;19923;-38
2023/03/20 13:15:11;;;;;;;;;;;;;;;;;;4217536;27;19924;-40
2023/03/20 13:17:12;;;;;;;;;;;;;;;;;;4219266;27;19924;-39
2023/03/20 13:19:13;;;;;;;;;;;;;;;;;;4217104;27;19927;-39
2023/03/20 13:21:15;;;;;;;;;;;;;;;;;;4207415;28;19923;-39
2023/03/20 13:23:15;;;;;;;;;;;;;;;;;;4208115;27;19923;-38
2023/03/20 13:25:16;;;;;;;;;;;;;;;;;;4216707;27;19935;-38
2023/03/20 13:27:17;;;;;;;;;;;;;;;;;;4203714;28;19996;-39
2023/03/20 13:29:19;;;;;;;;;;;;;;;;;;4212418;27;19923;-38
2023/03/20 13:31:20;;;;;;;;;;;;;;;;;;4213562;27;21855;-39
2023/03/20 13:33:21;;;;;;;;;;;;;;;;;;4210292;27;19923;-39
2023/03/20 13:35:22;;;;;;;;;;;;;;;;;;4221249;27;19919;-38
2023/03/20 13:37:24;;;;;;;;;;;;;;;;;;4226604;27;19923;-38
2023/03/20 13:39:25;;;;;;;;;;;;;;;;;;4222228;27;20501;-38
2023/03/20 13:41:25;;;;;;;;;;;;;;;;;;4222554;27;20339;-39
2023/03/20 13:43:27;;;;;;;;;;;;;;;;;;4222757;27;19916;-38
2023/03/20 13:45:28;;;;;;;;;;;;;;;;;;4220931;27;19927;-38
2023/03/20 13:47:29;;;;;;;;;;;;;;;;;;4210104;27;19977;-39
2023/03/20 13:49:30;;;;;;;;;;;;;;;;;;4217635;27;20354;-38
2023/03/20 13:51:31;;;;;;;;;;;;;;;;;;4225391;27;19923;-38
2023/03/20 13:53:32;;;;;;;;;;;;;;;;;;4220652;27;19920;-39
2023/03/20 13:55:33;;;;;;;;;;;;;;;;;;4220333;27;20359;-38
2023/03/20 13:57:34;;;;;;;;;;;;;;;;;;4220395;27;20350;-37
2023/03/20 13:59:35;;;;;;;;;;;;;;;;;;4216483;27;20239;-39
2023/03/20 14:01:37;;;;;;;;;;;;;;;;;;4216964;27;19972;-38